Time;durP1;ratioP1;P1;durP2;ratioP2;P2;SDS_P1;SDS_P2;PMS_P1;PMS_P2;Temp;Humidity;BMP_temperature;BMP_pressure;BME280_temperature;BME280_humidity;BME280_pressure;Samples;Min_cycle;Max_cycle;Signal;HPM_P1;HPM_P2
2024/04/15 00:00:15;;;;;;;;;;;;;;;;;;1117363;26;19929;-73
2024/04/15 00:00:45;;;;;;;;;;;;;;;;;;1111878;26;20360;-73
2024/04/15 00:01:16;;;;;;;;;;;;;;;;;;1104415;26;20364;-73
2024/04/15 00:01:46;;;;;;;;;;;;;;;;;;1104689;26;20000;-73
2024/04/15 00:02:16;;;;;;;;;;;;;;;;;;1104787;26;19938;-73
2024/04/15 00:02:46;;;;;;;;;;;;;;;;;;1104777;26;19944;-73
2024/04/15 00:03:17;;;;;;;;;;;;;;;;;;1104478;26;19978;-73
2024/04/15 00:03:47;;;;;;;;;;;;;;;;;;1104473;26;20000;-73
2024/04/15 00:04:17;;;;;;;;;;;;;;;;;;1104686;26;20003;-73
2024/04/15 00:04:47;;;;;;;;;;;;;;;;;;1104589;26;19945;-73
2024/04/15 00:05:17;;;;;;;;;;;;;;;;;;1104722;26;19930;-73
2024/04/15 00:05:48;;;;;;;;;;;;;;;;;;1110333;26;19934;-73
2024/04/15 00:06:18;;;;;;;;;;;;;;;;;;1112005;26;19936;-73
2024/04/15 00:06:48;;;;;;;;;;;;;;;;;;1115618;26;19937;-73
2024/04/15 00:07:18;;;;;;;;;;;;;;;;;;1111719;26;19929;-73
2024/04/15 00:07:49;;;;;;;;;;;;;;;;;;1109709;26;19934;-73
2024/04/15 00:08:19;;;;;;;;;;;;;;;;;;1111857;26;19961;-73
2024/04/15 00:08:49;;;;;;;;;;;;;;;;;;1112023;26;19976;-72
2024/04/15 00:09:19;;;;;;;;;;;;;;;;;;1111839;26;19958;-73
2024/04/15 00:09:49;;;;;;;;;;;;;;;;;;1112042;26;19940;-73
2024/04/15 00:10:20;;;;;;;;;;;;;;;;;;1112012;26;19962;-73
2024/04/15 00:10:50;;;;;;;;;;;;;;;;;;1104589;26;20071;-73
2024/04/15 00:11:20;;;;;;;;;;;;;;;;;;1111901;26;19930;-73
2024/04/15 00:11:51;;;;;;;;;;;;;;;;;;1109848;26;19929;-73
2024/04/15 00:12:21;;;;;;;;;;;;;;;;;;1112112;26;19933;-73
2024/04/15 00:12:51;;;;;;;;;;;;;;;;;;1111917;26;20336;-73
2024/04/15 00:13:21;;;;;;;;;;;;;;;;;;1111550;26;19937;-73
2024/04/15 00:13:52;;;;;;;;;;;;;;;;;;1119135;26;20301;-73
2024/04/15 00:14:22;;;;;;;;;;;;;;;;;;1119391;26;20006;-73
2024/04/15 00:14:52;;;;;;;;;;;;;;;;;;1126526;26;20370;-73
2024/04/15 00:15:22;;;;;;;;;;;;;;;;;;1126583;26;20293;-73
2024/04/15 00:15:52;;;;;;;;;;;;;;;;;;1115137;26;20374;-73
2024/04/15 00:16:23;;;;;;;;;;;;;;;;;;1119215;26;20285;-73
2024/04/15 00:16:53;;;;;;;;;;;;;;;;;;1111924;26;20312;-73
2024/04/15 00:17:23;;;;;;;;;;;;;;;;;;1112034;26;20002;-73
2024/04/15 00:17:54;;;;;;;;;;;;;;;;;;1111791;26;19969;-73
2024/04/15 00:18:24;;;;;;;;;;;;;;;;;;1111833;26;19941;-73
2024/04/15 00:18:55;;;;;;;;;;;;;;;;;;1116363;26;20286;-73
2024/04/15 00:19:27;;;;;;;;;;;;;;;;;;1116487;26;19957;-73
2024/04/15 00:19:57;;;;;;;;;;;;;;;;;;1111766;26;19936;-73
2024/04/15 00:20:29;;;;;;;;;;;;;;;;;;1111841;26;19930;-73
2024/04/15 00:20:59;;;;;;;;;;;;;;;;;;1110190;26;19999;-73
2024/04/15 00:21:29;;;;;;;;;;;;;;;;;;1111817;26;20007;-73
2024/04/15 00:22:00;;;;;;;;;;;;;;;;;;1111852;26;19936;-73
2024/04/15 00:22:30;;;;;;;;;;;;;;;;;;1111903;26;19937;-73
2024/04/15 00:23:00;;;;;;;;;;;;;;;;;;1111859;26;19929;-73
2024/04/15 00:23:31;;;;;;;;;;;;;;;;;;1113792;26;19933;-73
2024/04/15 00:24:01;;;;;;;;;;;;;;;;;;1115461;26;19949;-73
2024/04/15 00:24:31;;;;;;;;;;;;;;;;;;1111766;26;20006;-73
2024/04/15 00:25:01;;;;;;;;;;;;;;;;;;1110902;26;19937;-73
2024/04/15 00:25:31;;;;;;;;;;;;;;;;;;1110676;26;20344;-73
2024/04/15 00:26:02;;;;;;;;;;;;;;;;;;1110927;26;20454;-73
2024/04/15 00:26:32;;;;;;;;;;;;;;;;;;1111835;26;20470;-73
2024/04/15 00:27:02;;;;;;;;;;;;;;;;;;1111752;26;19945;-73
2024/04/15 00:27:32;;;;;;;;;;;;;;;;;;1116430;26;19936;-73
2024/04/15 00:28:03;;;;;;;;;;;;;;;;;;1116167;26;19928;-73
2024/04/15 00:28:33;;;;;;;;;;;;;;;;;;1111781;26;19935;-74
2024/04/15 00:29:03;;;;;;;;;;;;;;;;;;1111799;26;19930;-73
2024/04/15 00:29:33;;;;;;;;;;;;;;;;;;1113579;26;19933;-73
2024/04/15 00:30:04;;;;;;;;;;;;;;;;;;1111916;26;19940;-73
2024/04/15 00:30:34;;;;;;;;;;;;;;;;;;1115297;26;19937;-73
2024/04/15 00:31:04;;;;;;;;;;;;;;;;;;1115763;26;19930;-72
2024/04/15 00:31:34;;;;;;;;;;;;;;;;;;1116608;26;19936;-73
2024/04/15 00:32:04;;;;;;;;;;;;;;;;;;1116306;26;20286;-73
2024/04/15 00:32:35;;;;;;;;;;;;;;;;;;1116102;26;20284;-73
2024/04/15 00:33:05;;;;;;;;;;;;;;;;;;1111516;26;20518;-73
2024/04/15 00:33:35;;;;;;;;;;;;;;;;;;1111929;26;20388;-73
2024/04/15 00:34:05;;;;;;;;;;;;;;;;;;1112020;26;19936;-73
2024/04/15 00:34:35;;;;;;;;;;;;;;;;;;1111788;26;19941;-73
2024/04/15 00:35:06;;;;;;;;;;;;;;;;;;1111568;26;20025;-73
2024/04/15 00:35:36;;;;;;;;;;;;;;;;;;1110976;26;19954;-74
2024/04/15 00:36:06;;;;;;;;;;;;;;;;;;1111207;26;19965;-74
2024/04/15 00:36:36;;;;;;;;;;;;;;;;;;1112167;26;20009;-74
2024/04/15 00:37:07;;;;;;;;;;;;;;;;;;1118813;26;19965;-73
2024/04/15 00:37:37;;;;;;;;;;;;;;;;;;1119064;26;20044;-73
2024/04/15 00:38:07;;;;;;;;;;;;;;;;;;1126413;26;19974;-73
2024/04/15 00:38:37;;;;;;;;;;;;;;;;;;1126657;26;19933;-73
2024/04/15 00:39:07;;;;;;;;;;;;;;;;;;1118923;26;20316;-73
2024/04/15 00:39:38;;;;;;;;;;;;;;;;;;1119051;26;19929;-73
2024/04/15 00:40:08;;;;;;;;;;;;;;;;;;1112396;26;19971;-73
2024/04/15 00:40:38;;;;;;;;;;;;;;;;;;1113728;26;19930;-73
2024/04/15 00:41:08;;;;;;;;;;;;;;;;;;1111839;26;19935;-73
2024/04/15 00:41:39;;;;;;;;;;;;;;;;;;1111564;26;19933;-73
2024/04/15 00:42:09;;;;;;;;;;;;;;;;;;1111861;26;20045;-73
2024/04/15 00:42:39;;;;;;;;;;;;;;;;;;1112042;26;19969;-73
2024/04/15 00:43:09;;;;;;;;;;;;;;;;;;1111594;26;19983;-73
2024/04/15 00:43:39;;;;;;;;;;;;;;;;;;1111732;26;19938;-73
2024/04/15 00:44:10;;;;;;;;;;;;;;;;;;1111411;26;19930;-73
2024/04/15 00:44:40;;;;;;;;;;;;;;;;;;1112303;26;19931;-73
2024/04/15 00:45:10;;;;;;;;;;;;;;;;;;1111484;26;19929;-73
2024/04/15 00:45:40;;;;;;;;;;;;;;;;;;1110942;26;19999;-73
2024/04/15 00:46:10;;;;;;;;;;;;;;;;;;1126280;26;19940;-73
2024/04/15 00:46:41;;;;;;;;;;;;;;;;;;1126619;26;19943;-73
2024/04/15 00:47:11;;;;;;;;;;;;;;;;;;1126343;26;19928;-73
2024/04/15 00:47:41;;;;;;;;;;;;;;;;;;1114977;26;19929;-73
2024/04/15 00:48:11;;;;;;;;;;;;;;;;;;1111528;26;19929;-73
2024/04/15 00:48:42;;;;;;;;;;;;;;;;;;1111855;26;19942;-73
2024/04/15 00:49:12;;;;;;;;;;;;;;;;;;1100213;26;20045;-73
2024/04/15 00:49:43;;;;;;;;;;;;;;;;;;1111915;26;19930;-73
2024/04/15 00:50:13;;;;;;;;;;;;;;;;;;1111665;26;20016;-73
2024/04/15 00:50:43;;;;;;;;;;;;;;;;;;1110259;26;19945;-73
2024/04/15 00:51:14;;;;;;;;;;;;;;;;;;1111491;26;19941;-73
2024/04/15 00:51:44;;;;;;;;;;;;;;;;;;1111987;26;19940;-73
2024/04/15 00:52:14;;;;;;;;;;;;;;;;;;1111917;26;20320;-73
2024/04/15 00:52:44;;;;;;;;;;;;;;;;;;1105209;26;19930;-73
2024/04/15 00:53:14;;;;;;;;;;;;;;;;;;1112543;26;19929;-73
2024/04/15 00:53:45;;;;;;;;;;;;;;;;;;1111797;26;20004;-73
2024/04/15 00:54:15;;;;;;;;;;;;;;;;;;1112025;26;19954;-73
2024/04/15 00:54:45;;;;;;;;;;;;;;;;;;1111917;26;20327;-73
2024/04/15 00:55:15;;;;;;;;;;;;;;;;;;1111361;26;19929;-73
2024/04/15 00:55:46;;;;;;;;;;;;;;;;;;1111896;26;19985;-73
2024/04/15 00:56:16;;;;;;;;;;;;;;;;;;1119002;26;19937;-74
2024/04/15 00:56:46;;;;;;;;;;;;;;;;;;1119242;26;19929;-73
2024/04/15 00:57:16;;;;;;;;;;;;;;;;;;1115467;26;19957;-73
2024/04/15 00:57:47;;;;;;;;;;;;;;;;;;1111613;26;19985;-73
2024/04/15 00:58:17;;;;;;;;;;;;;;;;;;1111759;26;19936;-73
2024/04/15 00:58:47;;;;;;;;;;;;;;;;;;1111925;26;19929;-73
2024/04/15 00:59:17;;;;;;;;;;;;;;;;;;1111601;26;19934;-73
2024/04/15 00:59:47;;;;;;;;;;;;;;;;;;1109285;26;20016;-73
2024/04/15 01:00:18;;;;;;;;;;;;;;;;;;1111532;26;19937;-73
2024/04/15 01:00:48;;;;;;;;;;;;;;;;;;1115999;26;19935;-73
2024/04/15 01:01:18;;;;;;;;;;;;;;;;;;1115183;26;19965;-73
2024/04/15 01:01:48;;;;;;;;;;;;;;;;;;1115556;26;19930;-73
2024/04/15 01:02:19;;;;;;;;;;;;;;;;;;1111522;26;19935;-73
2024/04/15 01:02:50;;;;;;;;;;;;;;;;;;1112338;26;20514;-73
2024/04/15 01:03:20;;;;;;;;;;;;;;;;;;1111794;26;19941;-73
2024/04/15 01:03:50;;;;;;;;;;;;;;;;;;1111884;26;19930;-75
2024/04/15 01:04:20;;;;;;;;;;;;;;;;;;1111680;26;19937;-75
2024/04/15 01:04:50;;;;;;;;;;;;;;;;;;1109138;26;19936;-75
2024/04/15 01:05:21;;;;;;;;;;;;;;;;;;1113043;26;20598;-74
2024/04/15 01:05:51;;;;;;;;;;;;;;;;;;1115217;26;20422;-74
2024/04/15 01:06:21;;;;;;;;;;;;;;;;;;1114251;26;19941;-74
2024/04/15 01:06:51;;;;;;;;;;;;;;;;;;1114506;26;20616;-73
2024/04/15 01:07:22;;;;;;;;;;;;;;;;;;1119361;26;19983;-73
2024/04/15 01:07:52;;;;;;;;;;;;;;;;;;1110286;26;20027;-73
2024/04/15 01:08:22;;;;;;;;;;;;;;;;;;1116007;26;19944;-73
2024/04/15 01:08:52;;;;;;;;;;;;;;;;;;1113650;26;20005;-75
2024/04/15 01:09:23;;;;;;;;;;;;;;;;;;1108213;26;19930;-74
2024/04/15 01:09:53;;;;;;;;;;;;;;;;;;1113056;26;19976;-74
2024/04/15 01:10:23;;;;;;;;;;;;;;;;;;1115072;26;19940;-75
2024/04/15 01:10:54;;;;;;;;;;;;;;;;;;1111384;26;19933;-75
2024/04/15 01:11:24;;;;;;;;;;;;;;;;;;1106639;26;19988;-75
2024/04/15 01:11:55;;;;;;;;;;;;;;;;;;1106588;26;19938;-75
2024/04/15 01:12:25;;;;;;;;;;;;;;;;;;1112101;26;19934;-75
2024/04/15 01:12:56;;;;;;;;;;;;;;;;;;1111245;26;20428;-75
2024/04/15 01:13:26;;;;;;;;;;;;;;;;;;1112083;26;19961;-75
2024/04/15 01:13:56;;;;;;;;;;;;;;;;;;1108753;26;19930;-74
2024/04/15 01:14:26;;;;;;;;;;;;;;;;;;1125158;26;20396;-74
2024/04/15 01:14:57;;;;;;;;;;;;;;;;;;1119095;26;20311;-74
2024/04/15 01:15:27;;;;;;;;;;;;;;;;;;1118795;26;19990;-74
2024/04/15 01:15:57;;;;;;;;;;;;;;;;;;1108834;26;19930;-74
2024/04/15 01:16:27;;;;;;;;;;;;;;;;;;1104368;26;20007;-74
2024/04/15 01:16:57;;;;;;;;;;;;;;;;;;1099492;26;19931;-74
2024/04/15 01:17:28;;;;;;;;;;;;;;;;;;1099907;26;19937;-74
2024/04/15 01:17:58;;;;;;;;;;;;;;;;;;1106117;26;19930;-74
2024/04/15 01:18:28;;;;;;;;;;;;;;;;;;1113404;26;19929;-74
2024/04/15 01:18:59;;;;;;;;;;;;;;;;;;1111789;26;19938;-74
2024/04/15 01:19:29;;;;;;;;;;;;;;;;;;1110765;26;20390;-74
2024/04/15 01:19:59;;;;;;;;;;;;;;;;;;1114338;26;20433;-74
2024/04/15 01:20:29;;;;;;;;;;;;;;;;;;1109906;26;20019;-74
2024/04/15 01:21:00;;;;;;;;;;;;;;;;;;1108516;26;19929;-74
2024/04/15 01:21:31;;;;;;;;;;;;;;;;;;1105870;26;19938;-74
2024/04/15 01:22:01;;;;;;;;;;;;;;;;;;1107177;26;20001;-74
2024/04/15 01:22:31;;;;;;;;;;;;;;;;;;1103540;26;19950;-74
2024/04/15 01:23:01;;;;;;;;;;;;;;;;;;1110579;26;19942;-74
2024/04/15 01:23:32;;;;;;;;;;;;;;;;;;1107711;26;20000;-74
2024/04/15 01:24:02;;;;;;;;;;;;;;;;;;1108199;26;19942;-74
2024/04/15 01:24:32;;;;;;;;;;;;;;;;;;1116092;26;19935;-74
2024/04/15 01:25:02;;;;;;;;;;;;;;;;;;1115674;26;19929;-75
2024/04/15 01:25:32;;;;;;;;;;;;;;;;;;1114975;26;19942;-77
2024/04/15 01:26:03;;;;;;;;;;;;;;;;;;1114326;26;19929;-76
2024/04/15 01:26:33;;;;;;;;;;;;;;;;;;1112279;26;20006;-76
2024/04/15 01:27:03;;;;;;;;;;;;;;;;;;1115394;26;19930;-76
2024/04/15 01:27:33;;;;;;;;;;;;;;;;;;1112837;26;20251;-76
2024/04/15 01:28:04;;;;;;;;;;;;;;;;;;1115837;26;20030;-75
2024/04/15 01:28:37;;;;;;;;;;;;;;;;;;1111379;26;19941;-75
2024/04/15 01:29:07;;;;;;;;;;;;;;;;;;1109836;26;19929;-75
2024/04/15 01:29:37;;;;;;;;;;;;;;;;;;1109470;26;20373;-75
2024/04/15 01:30:07;;;;;;;;;;;;;;;;;;1109974;26;20456;-75
2024/04/15 01:30:37;;;;;;;;;;;;;;;;;;1114576;26;20357;-75
2024/04/15 01:31:08;;;;;;;;;;;;;;;;;;1117562;26;20389;-75
2024/04/15 01:31:38;;;;;;;;;;;;;;;;;;1117344;26;19930;-75
2024/04/15 01:32:08;;;;;;;;;;;;;;;;;;1118885;26;19933;-75
2024/04/15 01:32:38;;;;;;;;;;;;;;;;;;1124396;26;19929;-75
2024/04/15 01:33:10;;;;;;;;;;;;;;;;;;1121074;26;19937;-75
2024/04/15 01:33:40;;;;;;;;;;;;;;;;;;1120564;26;19936;-75
2024/04/15 01:34:10;;;;;;;;;;;;;;;;;;1114835;26;19985;-75
2024/04/15 01:34:40;;;;;;;;;;;;;;;;;;1107577;26;19930;-75
2024/04/15 01:35:12;;;;;;;;;;;;;;;;;;1110548;26;19966;-75
2024/04/15 01:35:43;;;;;;;;;;;;;;;;;;1099708;26;19931;-75
2024/04/15 01:36:13;;;;;;;;;;;;;;;;;;1101535;26;19931;-75
2024/04/15 01:36:43;;;;;;;;;;;;;;;;;;1099382;26;19938;-75
2024/04/15 01:37:13;;;;;;;;;;;;;;;;;;1107210;26;20377;-76
2024/04/15 01:37:43;;;;;;;;;;;;;;;;;;1118669;26;20497;-76
2024/04/15 01:38:14;;;;;;;;;;;;;;;;;;1121046;26;20466;-76
2024/04/15 01:38:44;;;;;;;;;;;;;;;;;;1117964;26;20443;-76
2024/04/15 01:39:14;;;;;;;;;;;;;;;;;;1115039;26;20376;-76
2024/04/15 01:39:44;;;;;;;;;;;;;;;;;;1113050;26;20373;-76
2024/04/15 01:40:14;;;;;;;;;;;;;;;;;;1108951;26;20297;-76
2024/04/15 01:40:45;;;;;;;;;;;;;;;;;;1109277;26;19929;-76
2024/04/15 01:41:15;;;;;;;;;;;;;;;;;;1106145;26;19991;-76
2024/04/15 01:41:45;;;;;;;;;;;;;;;;;;1105540;26;19930;-76
2024/04/15 01:42:15;;;;;;;;;;;;;;;;;;1101551;26;19930;-76
2024/04/15 01:42:46;;;;;;;;;;;;;;;;;;1112597;26;19930;-76
2024/04/15 01:43:17;;;;;;;;;;;;;;;;;;1112555;26;19937;-76
2024/04/15 01:43:48;;;;;;;;;;;;;;;;;;1112094;26;20306;-76
2024/04/15 01:44:18;;;;;;;;;;;;;;;;;;1112495;26;19936;-76
2024/04/15 01:44:48;;;;;;;;;;;;;;;;;;1110692;26;20004;-76
2024/04/15 01:45:19;;;;;;;;;;;;;;;;;;1106822;26;19930;-75
2024/04/15 01:45:49;;;;;;;;;;;;;;;;;;1107088;26;20413;-75
2024/04/15 01:46:20;;;;;;;;;;;;;;;;;;1106709;26;20068;-75
2024/04/15 01:46:50;;;;;;;;;;;;;;;;;;1097434;26;19966;-75
2024/04/15 01:47:20;;;;;;;;;;;;;;;;;;1103786;26;20393;-75
2024/04/15 01:47:51;;;;;;;;;;;;;;;;;;1099941;26;20387;-75
2024/04/15 01:48:21;;;;;;;;;;;;;;;;;;1096876;26;19938;-75
2024/04/15 01:48:51;;;;;;;;;;;;;;;;;;1103121;26;19930;-75
2024/04/15 01:49:21;;;;;;;;;;;;;;;;;;1104176;26;19937;-75
2024/04/15 01:49:51;;;;;;;;;;;;;;;;;;1105159;26;20014;-75
2024/04/15 01:50:22;;;;;;;;;;;;;;;;;;1103782;26;20476;-75
2024/04/15 01:50:52;;;;;;;;;;;;;;;;;;1105889;26;20425;-75
2024/04/15 01:51:22;;;;;;;;;;;;;;;;;;1090129;26;20302;-75
2024/04/15 01:51:53;;;;;;;;;;;;;;;;;;1098115;27;20306;-75
2024/04/15 01:52:23;;;;;;;;;;;;;;;;;;1098757;26;19942;-75
2024/04/15 01:52:53;;;;;;;;;;;;;;;;;;1110456;26;19929;-75
2024/04/15 01:53:23;;;;;;;;;;;;;;;;;;1106663;26;19945;-75
2024/04/15 01:53:54;;;;;;;;;;;;;;;;;;1106768;26;19942;-75
2024/04/15 01:54:24;;;;;;;;;;;;;;;;;;1111161;26;19929;-75
2024/04/15 01:54:54;;;;;;;;;;;;;;;;;;1111063;26;19976;-75
2024/04/15 01:55:24;;;;;;;;;;;;;;;;;;1109257;26;19941;-75
2024/04/15 01:55:54;;;;;;;;;;;;;;;;;;1105160;26;20421;-75
2024/04/15 01:56:25;;;;;;;;;;;;;;;;;;1108007;26;20285;-75
2024/04/15 01:56:55;;;;;;;;;;;;;;;;;;1107705;26;20691;-75
2024/04/15 01:57:25;;;;;;;;;;;;;;;;;;1106958;26;19929;-75
2024/04/15 01:57:55;;;;;;;;;;;;;;;;;;1103104;26;19941;-75
2024/04/15 01:58:26;;;;;;;;;;;;;;;;;;1110363;26;20082;-75
2024/04/15 01:58:56;;;;;;;;;;;;;;;;;;1102355;26;20466;-75
2024/04/15 01:59:26;;;;;;;;;;;;;;;;;;1099025;26;20005;-75
2024/04/15 01:59:56;;;;;;;;;;;;;;;;;;1100433;26;19959;-75
2024/04/15 02:00:27;;;;;;;;;;;;;;;;;;1098979;26;19935;-75
2024/04/15 02:00:57;;;;;;;;;;;;;;;;;;1105655;26;19938;-75
2024/04/15 02:01:28;;;;;;;;;;;;;;;;;;1109410;26;19970;-75
2024/04/15 02:01:58;;;;;;;;;;;;;;;;;;1099518;26;20406;-75
2024/04/15 02:02:28;;;;;;;;;;;;;;;;;;1104676;26;19930;-75
2024/04/15 02:02:58;;;;;;;;;;;;;;;;;;1108154;26;19930;-75
2024/04/15 02:03:29;;;;;;;;;;;;;;;;;;1104680;26;19930;-75
2024/04/15 02:03:59;;;;;;;;;;;;;;;;;;1118062;26;19942;-75
2024/04/15 02:04:30;;;;;;;;;;;;;;;;;;1111414;26;20364;-75
2024/04/15 02:05:01;;;;;;;;;;;;;;;;;;1113617;26;20293;-75
2024/04/15 02:05:32;;;;;;;;;;;;;;;;;;1115845;26;19941;-75
2024/04/15 02:06:02;;;;;;;;;;;;;;;;;;1105399;26;19930;-76
2024/04/15 02:06:32;;;;;;;;;;;;;;;;;;1113985;26;19933;-76
2024/04/15 02:07:02;;;;;;;;;;;;;;;;;;1116165;26;19962;-76
2024/04/15 02:07:33;;;;;;;;;;;;;;;;;;1115887;26;19935;-76
2024/04/15 02:08:03;;;;;;;;;;;;;;;;;;1109200;26;21087;-76
2024/04/15 02:08:33;;;;;;;;;;;;;;;;;;1108857;26;19957;-76
2024/04/15 02:09:03;;;;;;;;;;;;;;;;;;1100377;26;19938;-76
2024/04/15 02:09:34;;;;;;;;;;;;;;;;;;1101773;26;19939;-76
2024/04/15 02:10:04;;;;;;;;;;;;;;;;;;1113231;26;19929;-75
2024/04/15 02:10:34;;;;;;;;;;;;;;;;;;1112818;26;20563;-75
2024/04/15 02:11:04;;;;;;;;;;;;;;;;;;1118495;26;19998;-75
2024/04/15 02:11:35;;;;;;;;;;;;;;;;;;1125705;26;19936;-75
2024/04/15 02:12:05;;;;;;;;;;;;;;;;;;1108380;26;19981;-75
2024/04/15 02:12:35;;;;;;;;;;;;;;;;;;1111195;26;19984;-75
2024/04/15 02:13:05;;;;;;;;;;;;;;;;;;1103633;26;19989;-75
2024/04/15 02:13:35;;;;;;;;;;;;;;;;;;1102250;26;20382;-75
2024/04/15 02:14:06;;;;;;;;;;;;;;;;;;1102568;26;20439;-75
2024/04/15 02:14:36;;;;;;;;;;;;;;;;;;1105062;26;20475;-75
2024/04/15 02:15:06;;;;;;;;;;;;;;;;;;1107703;26;19929;-75
2024/04/15 02:15:36;;;;;;;;;;;;;;;;;;1098626;26;19957;-75
2024/04/15 02:16:07;;;;;;;;;;;;;;;;;;1099316;26;19938;-75
2024/04/15 02:16:37;;;;;;;;;;;;;;;;;;1097728;26;19931;-76
2024/04/15 02:17:07;;;;;;;;;;;;;;;;;;1098976;26;19937;-76
2024/04/15 02:17:37;;;;;;;;;;;;;;;;;;1107260;26;19930;-76
2024/04/15 02:18:07;;;;;;;;;;;;;;;;;;1098119;26;19937;-76
2024/04/15 02:18:38;;;;;;;;;;;;;;;;;;1103692;26;19941;-76
2024/04/15 02:19:08;;;;;;;;;;;;;;;;;;1112517;26;20464;-76
2024/04/15 02:19:38;;;;;;;;;;;;;;;;;;1114070;26;19998;-75
2024/04/15 02:20:08;;;;;;;;;;;;;;;;;;1119677;26;19936;-75
2024/04/15 02:20:40;;;;;;;;;;;;;;;;;;1107531;26;19937;-75
2024/04/15 02:21:10;;;;;;;;;;;;;;;;;;1104020;26;19980;-75
2024/04/15 02:21:40;;;;;;;;;;;;;;;;;;1101004;26;19981;-75
2024/04/15 02:22:11;;;;;;;;;;;;;;;;;;1098960;26;19930;-75
2024/04/15 02:22:41;;;;;;;;;;;;;;;;;;1104774;26;19936;-75
2024/04/15 02:23:11;;;;;;;;;;;;;;;;;;1101699;26;20004;-75
2024/04/15 02:23:41;;;;;;;;;;;;;;;;;;1103156;26;19934;-75
2024/04/15 02:24:13;;;;;;;;;;;;;;;;;;1102232;26;19934;-75
2024/04/15 02:24:43;;;;;;;;;;;;;;;;;;1107804;26;20400;-75
2024/04/15 02:25:13;;;;;;;;;;;;;;;;;;1099823;26;21323;-75
2024/04/15 02:25:43;;;;;;;;;;;;;;;;;;1098200;26;20603;-75
2024/04/15 02:26:14;;;;;;;;;;;;;;;;;;1103904;26;19938;-75
2024/04/15 02:26:44;;;;;;;;;;;;;;;;;;1104176;26;20363;-75
2024/04/15 02:27:14;;;;;;;;;;;;;;;;;;1111842;26;19929;-75
2024/04/15 02:27:44;;;;;;;;;;;;;;;;;;1105363;26;20043;-75
2024/04/15 02:28:14;;;;;;;;;;;;;;;;;;1104838;26;19942;-75
2024/04/15 02:28:45;;;;;;;;;;;;;;;;;;1114736;26;19929;-75
2024/04/15 02:29:15;;;;;;;;;;;;;;;;;;1112448;26;19930;-75
2024/04/15 02:29:45;;;;;;;;;;;;;;;;;;1116843;26;19929;-75
2024/04/15 02:30:15;;;;;;;;;;;;;;;;;;1119693;26;19936;-75
2024/04/15 02:30:46;;;;;;;;;;;;;;;;;;1113762;26;19928;-75
2024/04/15 02:31:16;;;;;;;;;;;;;;;;;;1116500;26;20004;-75
2024/04/15 02:31:46;;;;;;;;;;;;;;;;;;1113245;26;20044;-75
2024/04/15 02:32:18;;;;;;;;;;;;;;;;;;1108472;26;19930;-75
2024/04/15 02:32:48;;;;;;;;;;;;;;;;;;1105459;26;20322;-75
2024/04/15 02:33:18;;;;;;;;;;;;;;;;;;1101657;26;19936;-75
2024/04/15 02:33:49;;;;;;;;;;;;;;;;;;1103944;26;19934;-75
2024/04/15 02:34:19;;;;;;;;;;;;;;;;;;1105714;26;19958;-75
2024/04/15 02:34:49;;;;;;;;;;;;;;;;;;1106900;26;19942;-75
2024/04/15 02:35:20;;;;;;;;;;;;;;;;;;1103041;26;19930;-75
2024/04/15 02:35:51;;;;;;;;;;;;;;;;;;1103457;26;20006;-75
2024/04/15 02:36:22;;;;;;;;;;;;;;;;;;1106383;26;19934;-75
2024/04/15 02:36:52;;;;;;;;;;;;;;;;;;1112199;26;19929;-75
2024/04/15 02:37:22;;;;;;;;;;;;;;;;;;1112776;26;19938;-75
2024/04/15 02:37:52;;;;;;;;;;;;;;;;;;1114136;26;19958;-75
2024/04/15 02:38:22;;;;;;;;;;;;;;;;;;1107108;26;19965;-75
2024/04/15 02:38:53;;;;;;;;;;;;;;;;;;1114567;26;19929;-75
2024/04/15 02:39:23;;;;;;;;;;;;;;;;;;1105644;26;20567;-74
2024/04/15 02:39:53;;;;;;;;;;;;;;;;;;1104729;26;19941;-74
2024/04/15 02:40:23;;;;;;;;;;;;;;;;;;1111235;26;19957;-74
2024/04/15 02:40:54;;;;;;;;;;;;;;;;;;1107250;26;20056;-74
2024/04/15 02:41:25;;;;;;;;;;;;;;;;;;1105382;26;20030;-74
2024/04/15 02:41:55;;;;;;;;;;;;;;;;;;1097200;26;20330;-74
2024/04/15 02:42:25;;;;;;;;;;;;;;;;;;1098674;26;19959;-74
2024/04/15 02:42:55;;;;;;;;;;;;;;;;;;1097993;26;19944;-74
2024/04/15 02:43:26;;;;;;;;;;;;;;;;;;1101970;26;19930;-74
2024/04/15 02:43:56;;;;;;;;;;;;;;;;;;1104211;26;19937;-75
2024/04/15 02:44:26;;;;;;;;;;;;;;;;;;1110059;26;19941;-75
2024/04/15 02:44:56;;;;;;;;;;;;;;;;;;1109518;26;19937;-75
2024/04/15 02:45:27;;;;;;;;;;;;;;;;;;1115171;26;19936;-75
2024/04/15 02:45:57;;;;;;;;;;;;;;;;;;1111740;26;20000;-75
2024/04/15 02:46:27;;;;;;;;;;;;;;;;;;1108015;26;19944;-75
2024/04/15 02:46:57;;;;;;;;;;;;;;;;;;1106298;26;20332;-75
2024/04/15 02:47:28;;;;;;;;;;;;;;;;;;1104178;26;20454;-75
2024/04/15 02:47:58;;;;;;;;;;;;;;;;;;1110627;26;20286;-75
2024/04/15 02:48:28;;;;;;;;;;;;;;;;;;1102533;26;20368;-75
2024/04/15 02:48:58;;;;;;;;;;;;;;;;;;1109332;26;20389;-75
2024/04/15 02:49:29;;;;;;;;;;;;;;;;;;1102973;26;20451;-75
2024/04/15 02:49:59;;;;;;;;;;;;;;;;;;1104635;26;19934;-75
2024/04/15 02:50:29;;;;;;;;;;;;;;;;;;1111639;26;19961;-75
2024/04/15 02:51:00;;;;;;;;;;;;;;;;;;1094680;26;20576;-77
2024/04/15 02:51:31;;;;;;;;;;;;;;;;;;1107129;26;19941;-77
2024/04/15 02:52:01;;;;;;;;;;;;;;;;;;1106526;26;19942;-77
2024/04/15 02:52:31;;;;;;;;;;;;;;;;;;1110490;26;19937;-81
2024/04/15 02:53:02;;;;;;;;;;;;;;;;;;1106460;26;19945;-76
2024/04/15 02:53:33;;;;;;;;;;;;;;;;;;1098289;26;19938;-75
2024/04/15 02:54:06;;;;;;;;;;;;;;;;;;1103655;26;19945;-78
2024/04/15 02:54:37;;;;;;;;;;;;;;;;;;1103584;26;19950;-77
2024/04/15 02:55:08;;;;;;;;;;;;;;;;;;1098149;26;19937;-76
2024/04/15 02:55:38;;;;;;;;;;;;;;;;;;1093512;26;19945;-78
2024/04/15 02:56:09;;;;;;;;;;;;;;;;;;1094154;26;21066;-76
2024/04/15 02:56:41;;;;;;;;;;;;;;;;;;1103215;26;19930;-76
2024/04/15 02:57:11;;;;;;;;;;;;;;;;;;1097329;26;19938;-76
2024/04/15 02:57:41;;;;;;;;;;;;;;;;;;1105672;26;19937;-77
2024/04/15 02:58:12;;;;;;;;;;;;;;;;;;1096591;26;19944;-77
2024/04/15 02:58:42;;;;;;;;;;;;;;;;;;1091386;26;19938;-77
2024/04/15 02:59:12;;;;;;;;;;;;;;;;;;1089876;26;19942;-76
2024/04/15 02:59:43;;;;;;;;;;;;;;;;;;1084212;26;20012;-78
2024/04/15 03:00:15;;;;;;;;;;;;;;;;;;1096096;26;20008;-77
2024/04/15 03:00:45;;;;;;;;;;;;;;;;;;1090851;26;21440;-75
2024/04/15 03:01:16;;;;;;;;;;;;;;;;;;1089755;26;20005;-77
2024/04/15 03:01:46;;;;;;;;;;;;;;;;;;1096752;26;19930;-75
2024/04/15 03:02:18;;;;;;;;;;;;;;;;;;1095106;26;19946;-75
2024/04/15 03:02:49;;;;;;;;;;;;;;;;;;1099973;26;21010;-75
2024/04/15 03:03:19;;;;;;;;;;;;;;;;;;1094049;26;20031;-77
2024/04/15 03:03:49;;;;;;;;;;;;;;;;;;1110599;26;20027;-78
2024/04/15 03:04:20;;;;;;;;;;;;;;;;;;1098063;26;21312;-77
2024/04/15 03:04:50;;;;;;;;;;;;;;;;;;1099932;26;19945;-76
2024/04/15 03:05:20;;;;;;;;;;;;;;;;;;1103159;26;20423;-77
2024/04/15 03:05:50;;;;;;;;;;;;;;;;;;1095132;26;20535;-77
2024/04/15 03:06:21;;;;;;;;;;;;;;;;;;1092802;26;19997;-77
2024/04/15 03:06:51;;;;;;;;;;;;;;;;;;1093186;26;19931;-80
2024/04/15 03:07:22;;;;;;;;;;;;;;;;;;1092535;26;19938;-77
2024/04/15 03:07:52;;;;;;;;;;;;;;;;;;1097090;26;19973;-78
2024/04/15 03:08:23;;;;;;;;;;;;;;;;;;1075303;26;19942;-77
2024/04/15 03:08:54;;;;;;;;;;;;;;;;;;1098953;26;19948;-78
2024/04/15 03:09:25;;;;;;;;;;;;;;;;;;1104823;26;20399;-78
2024/04/15 03:09:56;;;;;;;;;;;;;;;;;;1099034;26;20417;-77
2024/04/15 03:10:26;;;;;;;;;;;;;;;;;;1090489;26;19942;-81
2024/04/15 03:10:57;;;;;;;;;;;;;;;;;;1105394;21;19939;-74
2024/04/15 03:11:27;;;;;;;;;;;;;;;;;;1101674;26;19952;-73
2024/04/15 03:11:57;;;;;;;;;;;;;;;;;;1106596;26;19943;-74
2024/04/15 03:12:28;;;;;;;;;;;;;;;;;;1109694;26;19952;-74
2024/04/15 03:12:58;;;;;;;;;;;;;;;;;;1106217;26;20026;-75
2024/04/15 03:13:28;;;;;;;;;;;;;;;;;;1108442;26;19937;-74
2024/04/15 03:13:58;;;;;;;;;;;;;;;;;;1107090;26;19937;-74
2024/04/15 03:14:29;;;;;;;;;;;;;;;;;;1107323;26;20501;-74
2024/04/15 03:14:59;;;;;;;;;;;;;;;;;;1107865;26;20515;-73
2024/04/15 03:15:31;;;;;;;;;;;;;;;;;;1104760;26;21184;-73
2024/04/15 03:16:01;;;;;;;;;;;;;;;;;;1106253;26;20404;-74
2024/04/15 03:16:32;;;;;;;;;;;;;;;;;;1102772;26;19945;-74
2024/04/15 03:17:02;;;;;;;;;;;;;;;;;;1101613;26;19945;-75
2024/04/15 03:17:33;;;;;;;;;;;;;;;;;;1106280;26;19980;-76
2024/04/15 03:18:03;;;;;;;;;;;;;;;;;;1107611;26;19937;-76
2024/04/15 03:18:33;;;;;;;;;;;;;;;;;;1107751;26;19933;-74
2024/04/15 03:19:03;;;;;;;;;;;;;;;;;;1115405;26;19999;-75
2024/04/15 03:19:34;;;;;;;;;;;;;;;;;;1111544;26;19936;-74
2024/04/15 03:20:04;;;;;;;;;;;;;;;;;;1105701;26;20628;-73
2024/04/15 03:20:34;;;;;;;;;;;;;;;;;;1111206;26;19965;-74
2024/04/15 03:21:04;;;;;;;;;;;;;;;;;;1107675;26;20006;-73
2024/04/15 03:21:35;;;;;;;;;;;;;;;;;;1111137;26;19944;-73
2024/04/15 03:22:05;;;;;;;;;;;;;;;;;;1108239;26;19937;-73
2024/04/15 03:22:35;;;;;;;;;;;;;;;;;;1108511;26;19944;-74
2024/04/15 03:23:06;;;;;;;;;;;;;;;;;;1108479;26;19940;-74
2024/04/15 03:23:36;;;;;;;;;;;;;;;;;;1112502;26;19928;-74
2024/04/15 03:24:06;;;;;;;;;;;;;;;;;;1099794;26;20460;-74
2024/04/15 03:24:36;;;;;;;;;;;;;;;;;;1095479;26;19941;-74
2024/04/15 03:25:06;;;;;;;;;;;;;;;;;;1091460;26;19944;-74
2024/04/15 03:25:37;;;;;;;;;;;;;;;;;;1098094;26;20864;-74
2024/04/15 03:26:07;;;;;;;;;;;;;;;;;;1096705;26;19998;-74
2024/04/15 03:26:37;;;;;;;;;;;;;;;;;;1098073;26;20858;-74
2024/04/15 03:27:07;;;;;;;;;;;;;;;;;;1099558;26;19945;-74